createdAt,value
2019-06-07T00:00:29.628Z,916.09
2019-06-07T00:01:09.549Z,916.11
2019-06-07T00:02:10.377Z,916.09
2019-06-07T00:03:10.632Z,916.10
2019-06-07T00:04:10.335Z,916.13
2019-06-07T00:05:10.013Z,916.13
2019-06-07T00:06:13.204Z,916.14
2019-06-07T00:07:10.171Z,916.15
2019-06-07T00:08:17.142Z,916.16
2019-06-07T00:09:10.093Z,916.16
2019-06-07T00:10:09.506Z,916.15
2019-06-07T00:11:13.041Z,916.18
2019-06-07T00:12:09.541Z,916.15
2019-06-07T00:13:09.690Z,916.16
2019-06-07T00:14:08.755Z,916.21
2019-06-07T00:15:14.336Z,916.19
2019-06-07T00:16:08.733Z,916.19
2019-06-07T00:17:10.544Z,916.20
2019-06-07T00:18:11.173Z,916.18
2019-06-07T00:19:09.538Z,916.16
2019-06-07T00:20:09.329Z,916.16
2019-06-07T00:21:08.934Z,916.17
2019-06-07T00:22:16.545Z,916.13
2019-06-07T00:23:08.711Z,916.16
2019-06-07T00:24:08.783Z,916.14
2019-06-07T00:25:12.124Z,916.15
2019-06-07T00:26:08.520Z,916.17
2019-06-07T00:27:08.432Z,916.19
2019-06-07T00:28:08.221Z,916.21
2019-06-07T00:29:09.230Z,916.19
2019-06-07T00:30:32.734Z,916.21
2019-06-07T00:31:09.043Z,916.22
2019-06-07T00:32:09.264Z,916.20
2019-06-07T00:33:10.069Z,916.19
2019-06-07T00:34:10.307Z,916.19
2019-06-07T00:35:09.028Z,916.19
2019-06-07T00:36:07.824Z,916.21
2019-06-07T00:37:07.764Z,916.22
2019-06-07T00:38:07.821Z,916.21
2019-06-07T00:39:07.724Z,916.24
2019-06-07T00:40:17.415Z,916.23
2019-06-07T00:41:07.673Z,916.25
2019-06-07T00:42:07.582Z,916.24
2019-06-07T00:43:07.849Z,916.24
2019-06-07T00:44:07.538Z,916.24
2019-06-07T00:45:07.507Z,916.23
2019-06-07T00:46:07.511Z,916.28
2019-06-07T00:47:07.436Z,916.25
2019-06-07T00:48:07.409Z,916.24
2019-06-07T00:49:07.343Z,916.27
2019-06-07T00:50:07.319Z,916.30
2019-06-07T00:51:07.302Z,916.27
2019-06-07T00:52:07.277Z,916.27
2019-06-07T00:53:18.217Z,916.33
2019-06-07T00:54:07.406Z,916.35
2019-06-07T00:55:07.309Z,916.38
2019-06-07T00:56:07.111Z,916.38
2019-06-07T00:57:07.085Z,916.36
2019-06-07T00:58:07.078Z,916.36
2019-06-07T00:59:11.424Z,916.38
2019-06-07T01:00:07.143Z,916.32
2019-06-07T01:01:06.934Z,916.38
2019-06-07T01:02:06.925Z,916.35
2019-06-07T01:03:06.877Z,916.36
2019-06-07T01:04:06.835Z,916.37
2019-06-07T01:05:06.969Z,916.38
2019-06-07T01:06:06.775Z,916.43
2019-06-07T01:07:06.741Z,916.40
2019-06-07T01:08:06.685Z,916.42
2019-06-07T01:09:06.669Z,916.45
2019-06-07T01:10:06.630Z,916.40
2019-06-07T01:11:06.606Z,916.41
2019-06-07T01:12:06.568Z,916.45
2019-06-07T01:13:06.547Z,916.42
2019-06-07T01:14:06.491Z,916.45
2019-06-07T01:15:06.481Z,916.45
2019-06-07T01:16:06.442Z,916.44
2019-06-07T01:17:22.487Z,916.42
2019-06-07T01:18:37.055Z,916.42
2019-06-07T01:19:06.338Z,916.41
2019-06-07T01:20:06.296Z,916.40
2019-06-07T01:21:06.270Z,916.40
2019-06-07T01:22:06.202Z,916.43
2019-06-07T01:23:51.989Z,916.40
2019-06-07T01:24:12.053Z,916.42
2019-06-07T01:25:06.145Z,916.42
2019-06-07T01:26:06.078Z,916.43
2019-06-07T01:27:06.026Z,916.43
2019-06-07T01:28:05.989Z,916.44
2019-06-07T01:29:05.956Z,916.42
2019-06-07T01:30:05.919Z,916.42
2019-06-07T01:31:05.906Z,916.41
2019-06-07T01:32:05.869Z,916.41
2019-06-07T01:33:05.813Z,916.41
2019-06-07T01:34:05.782Z,916.39
2019-06-07T01:35:05.780Z,916.42
2019-06-07T01:36:05.732Z,916.44
2019-06-07T01:37:05.745Z,916.41
2019-06-07T01:38:05.682Z,916.41
2019-06-07T01:39:05.626Z,916.40
2019-06-07T01:40:05.630Z,916.40
2019-06-07T01:41:05.576Z,916.37
2019-06-07T01:42:05.497Z,916.42
2019-06-07T01:43:05.488Z,916.38
2019-06-07T01:44:05.453Z,916.35
2019-06-07T01:45:05.428Z,916.34
2019-06-07T01:46:05.392Z,916.34
2019-06-07T01:47:05.769Z,916.34
2019-06-07T01:48:05.294Z,916.36
2019-06-07T01:49:05.297Z,916.33
2019-06-07T01:50:05.283Z,916.37
2019-06-07T01:51:05.409Z,916.39
2019-06-07T01:52:05.193Z,916.38
2019-06-07T01:53:05.149Z,916.37
2019-06-07T01:55:05.084Z,916.39
2019-06-07T01:56:05.011Z,916.37
2019-06-07T01:57:04.988Z,916.41
2019-06-07T01:58:04.943Z,916.39
2019-06-07T01:59:04.944Z,916.33
2019-06-07T02:00:04.909Z,916.35
2019-06-07T02:01:04.844Z,916.32
2019-06-07T02:02:04.835Z,916.29
2019-06-07T02:03:04.774Z,916.30
2019-06-07T02:04:04.828Z,916.29
2019-06-07T02:05:04.726Z,916.29
2019-06-07T02:06:04.710Z,916.32
2019-06-07T02:07:04.631Z,916.30
2019-06-07T02:08:04.634Z,916.30
2019-06-07T02:09:04.557Z,916.30
2019-06-07T02:10:04.587Z,916.32
2019-06-07T02:11:04.505Z,916.27
2019-06-07T02:12:24.721Z,916.28
2019-06-07T02:13:04.414Z,916.23
2019-06-07T02:14:04.741Z,916.25
2019-06-07T02:15:04.356Z,916.23
2019-06-07T02:16:04.321Z,916.21
2019-06-07T02:17:04.344Z,916.20
2019-06-07T02:18:04.266Z,916.20
2019-06-07T02:19:04.231Z,916.18
2019-06-07T02:20:04.205Z,916.15
2019-06-07T02:21:04.158Z,916.20
2019-06-07T02:22:04.133Z,916.19
2019-06-07T02:23:04.076Z,916.21
2019-06-07T02:24:04.049Z,916.21
2019-06-07T02:25:35.114Z,916.24
2019-06-07T02:26:03.988Z,916.25
2019-06-07T02:27:04.013Z,916.28
2019-06-07T02:28:26.708Z,916.25
2019-06-07T02:29:03.863Z,916.24
2019-06-07T02:30:35.088Z,916.25
2019-06-07T02:31:03.803Z,916.22
2019-06-07T02:32:03.783Z,916.24
2019-06-07T02:33:03.737Z,916.20
2019-06-07T02:34:03.683Z,916.23
2019-06-07T02:35:03.642Z,916.21
2019-06-07T02:36:03.680Z,916.20
2019-06-07T02:37:03.576Z,916.19
2019-06-07T02:38:03.572Z,916.16
2019-06-07T02:39:03.522Z,916.15
2019-06-07T02:40:03.495Z,916.14
2019-06-07T02:41:03.588Z,916.14
2019-06-07T02:42:03.401Z,916.11
2019-06-07T02:43:03.361Z,916.14
2019-06-07T02:44:03.340Z,916.15
2019-06-07T02:45:03.309Z,916.16
2019-06-07T02:46:24.608Z,916.12
2019-06-07T02:48:03.182Z,916.15
2019-06-07T02:49:03.158Z,916.12
2019-06-07T02:50:03.156Z,916.10
2019-06-07T02:51:03.080Z,916.10
2019-06-07T02:52:03.063Z,916.15
2019-06-07T02:53:03.007Z,916.13
2019-06-07T02:54:02.982Z,916.10
2019-06-07T02:55:02.978Z,916.11
2019-06-07T02:57:02.863Z,916.07
2019-06-07T02:58:02.897Z,916.08
2019-06-07T02:59:02.826Z,916.10
2019-06-07T03:00:17.130Z,916.12
2019-06-07T03:01:08.874Z,916.10
2019-06-07T03:02:02.700Z,916.06
2019-06-07T03:03:02.650Z,916.10
2019-06-07T03:04:02.619Z,916.05
2019-06-07T03:05:02.605Z,916.08
2019-06-07T03:06:02.585Z,916.07
2019-06-07T03:07:02.530Z,916.09
2019-06-07T03:08:02.681Z,916.09
2019-06-07T03:09:02.441Z,916.10
2019-06-07T03:10:02.401Z,916.11
2019-06-07T03:11:02.370Z,916.12
2019-06-07T03:12:02.352Z,916.15
2019-06-07T03:14:02.267Z,916.14
2019-06-07T03:15:02.227Z,916.16
2019-06-07T03:16:02.223Z,916.17
2019-06-07T03:17:02.182Z,916.18
2019-06-07T03:18:02.149Z,916.21
2019-06-07T03:19:02.085Z,916.19
2019-06-07T03:20:02.069Z,916.17
2019-06-07T03:21:05.302Z,916.18
2019-06-07T03:22:01.973Z,916.17
2019-06-07T03:23:02.031Z,916.22
2019-06-07T03:24:01.950Z,916.17
2019-06-07T03:25:01.881Z,916.14
2019-06-07T03:26:01.865Z,916.11
2019-06-07T03:28:01.776Z,916.13
2019-06-07T03:29:01.734Z,916.09
2019-06-07T03:30:35.265Z,916.16
2019-06-07T03:31:02.935Z,916.11
2019-06-07T03:32:01.649Z,916.09
2019-06-07T03:33:01.610Z,916.04
2019-06-07T03:34:01.826Z,915.99
2019-06-07T03:35:01.540Z,916.03
2019-06-07T03:36:11.763Z,916.05
2019-06-07T03:37:01.444Z,916.09
2019-06-07T03:38:01.457Z,916.08
2019-06-07T03:39:01.396Z,916.10
2019-06-07T03:40:01.355Z,916.09
2019-06-07T03:41:01.323Z,916.04
2019-06-07T03:42:06.276Z,916.02
2019-06-07T03:43:01.235Z,916.02
2019-06-07T03:44:01.211Z,915.97
2019-06-07T03:45:01.502Z,916.02
2019-06-07T03:46:01.124Z,916.01
2019-06-07T03:47:01.140Z,915.99
2019-06-07T03:48:01.068Z,916.00
2019-06-07T03:49:01.046Z,915.99
2019-06-07T03:50:00.991Z,915.99
2019-06-07T03:51:04.424Z,915.98
2019-06-07T03:52:00.927Z,916.03
2019-06-07T03:53:00.868Z,915.97
2019-06-07T03:54:00.843Z,915.96
2019-06-07T03:55:00.815Z,915.94
2019-06-07T03:56:00.759Z,915.93
2019-06-07T03:57:00.724Z,915.94
2019-06-07T03:58:30.774Z,915.94
2019-06-07T03:59:00.684Z,915.91
2019-06-07T04:00:00.615Z,915.99
2019-06-07T04:01:02.194Z,916.00
2019-06-07T04:02:00.716Z,916.01
2019-06-07T04:03:00.531Z,916.01
2019-06-07T04:04:00.475Z,916.02
2019-06-07T04:05:00.445Z,916.04
2019-06-07T04:06:00.480Z,916.00
2019-06-07T04:07:01.221Z,916.02
2019-06-07T04:08:00.329Z,915.99
2019-06-07T04:09:00.356Z,915.99
2019-06-07T04:10:00.258Z,915.98
2019-06-07T04:11:00.796Z,915.93
2019-06-07T04:12:00.208Z,915.95
2019-06-07T04:13:00.548Z,915.96
2019-06-07T04:14:00.124Z,915.94
2019-06-07T04:15:00.101Z,915.95
2019-06-07T04:16:00.071Z,915.95
2019-06-07T04:17:00.027Z,915.94
2019-06-07T04:18:02.250Z,915.94
2019-06-07T04:19:00.086Z,915.90
2019-06-07T04:19:59.920Z,915.93
2019-06-07T04:20:59.918Z,915.94
2019-06-07T04:21:59.850Z,915.90
2019-06-07T04:22:59.796Z,915.96
2019-06-07T04:23:59.759Z,915.89
2019-06-07T04:24:59.718Z,915.93
2019-06-07T04:25:59.718Z,915.93
2019-06-07T04:26:59.679Z,915.87
2019-06-07T04:27:59.608Z,915.90
2019-06-07T04:30:07.236Z,915.88
2019-06-07T04:30:59.526Z,915.87
2019-06-07T04:31:59.487Z,915.86
2019-06-07T04:32:59.451Z,915.92
2019-06-07T04:33:59.412Z,915.89
2019-06-07T04:34:59.397Z,915.86
2019-06-07T04:35:59.345Z,915.89
2019-06-07T04:36:59.681Z,915.85
2019-06-07T04:37:59.282Z,915.88
2019-06-07T04:38:59.215Z,915.87
2019-06-07T04:39:59.189Z,915.92
2019-06-07T04:40:59.470Z,915.95
2019-06-07T04:41:59.119Z,915.92
2019-06-07T04:42:59.098Z,915.92
2019-06-07T04:43:59.039Z,915.91
2019-06-07T04:44:58.995Z,915.89
2019-06-07T04:45:58.969Z,915.89
2019-06-07T04:46:59.129Z,915.90
2019-06-07T04:47:58.985Z,915.87
2019-06-07T04:48:58.857Z,915.84
2019-06-07T04:49:58.817Z,915.85
2019-06-07T04:50:58.810Z,915.87
2019-06-07T04:51:58.783Z,915.89
2019-06-07T04:52:58.728Z,915.91
2019-06-07T04:53:58.702Z,915.88
2019-06-07T04:54:58.642Z,915.88
2019-06-07T04:55:58.600Z,915.91
2019-06-07T04:56:58.608Z,915.91
2019-06-07T04:57:58.677Z,915.90
2019-06-07T04:58:58.517Z,915.90
2019-06-07T05:00:21.918Z,915.90
2019-06-07T05:01:03.193Z,915.89
2019-06-07T05:01:58.391Z,915.93
2019-06-07T05:02:58.345Z,915.90
2019-06-07T05:03:58.358Z,915.95
2019-06-07T05:04:58.367Z,915.95
2019-06-07T05:05:58.263Z,915.97
2019-06-07T05:06:58.207Z,915.97
2019-06-07T05:07:58.190Z,915.93
2019-06-07T05:08:58.151Z,915.94
2019-06-07T05:09:58.096Z,915.93
2019-06-07T05:10:58.061Z,915.92
2019-06-07T05:11:58.045Z,915.91
2019-06-07T05:12:58.006Z,915.94
2019-06-07T05:13:58.015Z,915.89
2019-06-07T05:14:57.914Z,915.90
2019-06-07T05:15:57.901Z,915.89
2019-06-07T05:16:57.864Z,915.91
2019-06-07T05:17:57.828Z,915.90
2019-06-07T05:18:57.805Z,915.90
2019-06-07T05:19:57.754Z,915.90
2019-06-07T05:20:59.022Z,915.89
2019-06-07T05:22:04.216Z,915.89
2019-06-07T05:22:57.648Z,915.89
2019-06-07T05:24:07.540Z,915.86
2019-06-07T05:24:57.575Z,915.84
2019-06-07T05:25:57.537Z,915.80
2019-06-07T05:26:57.498Z,915.79
2019-06-07T05:27:57.466Z,915.77
2019-06-07T05:28:57.429Z,915.75
2019-06-07T05:30:13.313Z,915.69
2019-06-07T05:31:04.647Z,915.73
2019-06-07T05:31:57.308Z,915.69
2019-06-07T05:32:57.267Z,915.71
2019-06-07T05:33:57.235Z,915.75
2019-06-07T05:34:57.232Z,915.74
2019-06-07T05:35:57.165Z,915.76
2019-06-07T05:37:11.102Z,915.75
2019-06-07T05:37:57.084Z,915.75
2019-06-07T05:38:57.071Z,915.73
2019-06-07T05:39:57.016Z,915.74
2019-06-07T05:40:56.998Z,915.72
2019-06-07T05:41:56.948Z,915.78
2019-06-07T05:42:56.903Z,915.79
2019-06-07T05:44:12.219Z,915.80
2019-06-07T05:44:56.839Z,915.81
2019-06-07T05:45:56.814Z,915.84
2019-06-07T05:46:56.758Z,915.81
2019-06-07T05:47:56.740Z,915.78
2019-06-07T05:48:56.703Z,915.78
2019-06-07T05:49:56.653Z,915.78
2019-06-07T05:50:57.433Z,915.77
2019-06-07T05:51:56.597Z,915.79
2019-06-07T05:52:56.560Z,915.75
2019-06-07T05:53:56.500Z,915.74
2019-06-07T05:54:56.467Z,915.77
2019-06-07T05:55:56.431Z,915.79
2019-06-07T05:56:56.398Z,915.84
2019-06-07T05:57:56.384Z,915.76
2019-06-07T05:58:56.326Z,915.77
2019-06-07T05:59:56.539Z,915.79
2019-06-07T06:00:56.251Z,915.73
2019-06-07T06:02:03.347Z,915.75
2019-06-07T06:03:04.868Z,915.76
2019-06-07T06:03:56.136Z,915.76
2019-06-07T06:04:56.100Z,915.78
2019-06-07T06:05:56.175Z,915.79
2019-06-07T06:06:56.069Z,915.79
2019-06-07T06:07:56.015Z,915.80
2019-06-07T06:09:12.937Z,915.81
2019-06-07T06:09:55.942Z,915.80
2019-06-07T06:10:55.911Z,915.79
2019-06-07T06:12:02.095Z,915.79
2019-06-07T06:12:55.836Z,915.76
2019-06-07T06:14:06.749Z,915.69
2019-06-07T06:14:55.767Z,915.69
2019-06-07T06:16:01.685Z,915.68
2019-06-07T06:16:55.664Z,915.66
2019-06-07T06:17:57.026Z,915.69
2019-06-07T06:18:55.596Z,915.70
2019-06-07T06:19:55.557Z,915.73
2019-06-07T06:21:15.200Z,915.78
2019-06-07T06:21:55.683Z,915.78
2019-06-07T06:22:55.467Z,915.73
2019-06-07T06:23:55.438Z,915.70
2019-06-07T06:25:30.128Z,915.67
2019-06-07T06:25:57.605Z,915.67
2019-06-07T06:27:12.809Z,915.65
2019-06-07T06:28:10.077Z,915.66
2019-06-07T06:28:56.263Z,915.67
2019-06-07T06:29:55.191Z,915.67
2019-06-07T06:30:55.162Z,915.69
2019-06-07T06:32:40.051Z,915.69
2019-06-07T06:32:58.119Z,915.70
2019-06-07T06:33:55.422Z,915.71
2019-06-07T06:34:55.913Z,915.68
2019-06-07T06:35:55.022Z,915.65
2019-06-07T06:36:54.966Z,915.67
2019-06-07T06:37:54.898Z,915.64
2019-06-07T06:38:54.896Z,915.67
2019-06-07T06:39:55.024Z,915.64
2019-06-07T06:41:13.971Z,915.65
2019-06-07T06:42:03.200Z,915.69
2019-06-07T06:42:54.719Z,915.72
2019-06-07T06:43:54.706Z,915.71
2019-06-07T06:44:54.671Z,915.70
2019-06-07T06:45:54.656Z,915.70
2019-06-07T06:46:58.331Z,915.76
2019-06-07T06:47:54.543Z,915.76
2019-06-07T06:48:55.595Z,915.75
2019-06-07T06:49:54.720Z,915.74
2019-06-07T06:50:54.433Z,915.75
2019-06-07T06:51:54.420Z,915.78
2019-06-07T06:52:55.042Z,915.74
2019-06-07T06:53:54.332Z,915.77
2019-06-07T06:55:00.517Z,915.78
2019-06-07T06:55:54.512Z,915.77
2019-06-07T06:57:17.175Z,915.75
2019-06-07T06:57:54.185Z,915.80
2019-06-07T06:59:33.937Z,915.82
2019-06-07T06:59:54.123Z,915.85
2019-06-07T07:01:05.871Z,915.85
2019-06-07T07:01:54.202Z,915.84
2019-06-07T07:03:39.403Z,915.87
2019-06-07T07:04:10.640Z,915.92
2019-06-07T07:04:54.179Z,915.92
2019-06-07T07:05:54.834Z,915.89
2019-06-07T07:06:55.194Z,915.93
2019-06-07T07:07:53.796Z,915.93
2019-06-07T07:08:53.769Z,915.91
2019-06-07T07:09:58.661Z,915.94
2019-06-07T07:10:55.068Z,915.95
2019-06-07T07:12:10.299Z,915.93
2019-06-07T07:12:53.613Z,915.93
2019-06-07T07:13:56.528Z,915.95
2019-06-07T07:14:55.895Z,915.96
2019-06-07T07:15:57.996Z,915.99
2019-06-07T07:16:56.042Z,915.96
2019-06-07T07:18:04.348Z,915.97
2019-06-07T07:18:54.721Z,915.91
2019-06-07T07:19:55.648Z,915.87
2019-06-07T07:20:56.788Z,915.88
2019-06-07T07:21:55.312Z,915.88
2019-06-07T07:22:56.444Z,915.88
2019-06-07T07:24:19.716Z,915.86
2019-06-07T07:24:54.742Z,915.92
2019-06-07T07:25:59.084Z,915.95
2019-06-07T07:26:56.506Z,915.96
2019-06-07T07:27:55.279Z,915.96
2019-06-07T07:28:57.155Z,916.01
2019-06-07T07:30:22.747Z,916.05
2019-06-07T07:30:55.963Z,916.04
2019-06-07T07:31:56.199Z,916.08
2019-06-07T07:32:54.124Z,916.05
2019-06-07T07:34:29.043Z,916.06
2019-06-07T07:34:59.658Z,916.08
2019-06-07T07:36:18.578Z,916.06
2019-06-07T07:36:58.239Z,916.03
2019-06-07T07:37:57.018Z,916.05
2019-06-07T07:39:03.184Z,916.02
2019-06-07T07:40:00.900Z,916.02
2019-06-07T07:41:05.011Z,916.02
2019-06-07T07:42:13.728Z,916.00
2019-06-07T07:42:54.973Z,916.01
2019-06-07T07:44:55.105Z,916.00
2019-06-07T07:46:01.426Z,915.99
2019-06-07T07:46:54.119Z,915.99
2019-06-07T07:48:08.306Z,915.97
2019-06-07T07:48:54.603Z,916.00
2019-06-07T07:49:55.824Z,916.01
2019-06-07T07:50:56.912Z,915.99
2019-06-07T07:51:54.850Z,916.02
2019-06-07T07:52:59.205Z,916.04
2019-06-07T07:54:02.033Z,916.05
2019-06-07T07:54:56.072Z,916.04
2019-06-07T07:55:56.635Z,916.06
2019-06-07T07:56:55.602Z,916.09
2019-06-07T07:58:00.569Z,916.09
2019-06-07T07:58:56.190Z,916.07
2019-06-07T08:00:12.094Z,916.14
2019-06-07T08:01:00.819Z,916.14
2019-06-07T08:01:55.439Z,916.12
2019-06-07T08:02:53.739Z,916.08
2019-06-07T08:03:54.866Z,916.08
2019-06-07T08:05:17.698Z,916.06
2019-06-07T08:05:54.257Z,916.05
2019-06-07T08:06:53.373Z,916.06
2019-06-07T08:07:55.803Z,916.13
2019-06-07T08:08:53.755Z,916.15
2019-06-07T08:09:55.682Z,916.20
2019-06-07T08:10:55.051Z,916.22
2019-06-07T08:11:52.943Z,916.24
2019-06-07T08:13:08.939Z,916.20
2019-06-07T08:13:53.051Z,916.19
2019-06-07T08:14:53.620Z,916.17
2019-06-07T08:15:55.820Z,916.10
2019-06-07T08:16:51.906Z,916.06
2019-06-07T08:17:56.034Z,916.07
2019-06-07T08:18:53.291Z,916.07
2019-06-07T08:19:52.291Z,916.08
2019-06-07T08:21:09.370Z,916.13
2019-06-07T08:21:51.081Z,916.13
2019-06-07T08:22:52.532Z,916.16
2019-06-07T08:24:53.167Z,916.12
2019-06-07T08:25:52.673Z,916.14
2019-06-07T08:27:12.415Z,916.08
2019-06-07T08:27:51.886Z,916.10
2019-06-07T08:28:54.145Z,916.11
2019-06-07T08:30:13.623Z,916.12
2019-06-07T08:30:57.549Z,916.12
2019-06-07T08:31:53.792Z,916.13
2019-06-07T08:32:54.953Z,916.11
2019-06-07T08:33:52.623Z,916.13
2019-06-07T08:34:54.994Z,916.27
2019-06-07T08:36:11.563Z,916.28
2019-06-07T08:36:52.242Z,916.34
2019-06-07T08:38:54.315Z,916.41
2019-06-07T08:39:52.320Z,916.40
2019-06-07T08:40:56.854Z,916.38
2019-06-07T08:41:59.375Z,916.44
2019-06-07T08:43:09.890Z,916.44
2019-06-07T08:43:51.388Z,916.40
2019-06-07T08:44:51.886Z,916.40
2019-06-07T08:45:55.761Z,916.38
2019-06-07T08:46:56.591Z,916.37
2019-06-07T08:47:51.665Z,916.35
2019-06-07T08:48:51.194Z,916.39
2019-06-07T08:49:50.967Z,916.37
2019-06-07T08:50:54.277Z,916.40
2019-06-07T08:51:54.309Z,916.39
2019-06-07T08:52:54.742Z,916.41
2019-06-07T08:54:09.002Z,916.42
2019-06-07T08:54:50.474Z,916.39
2019-06-07T08:55:52.405Z,916.41
2019-06-07T08:57:51.937Z,916.38
2019-06-07T08:58:49.721Z,916.40
2019-06-07T08:59:49.657Z,916.40
2019-06-07T09:00:49.638Z,916.44
2019-06-07T09:01:49.880Z,916.47
2019-06-07T09:02:49.652Z,916.44
2019-06-07T09:03:49.530Z,916.45
2019-06-07T09:04:49.470Z,916.44
2019-06-07T09:05:49.508Z,916.41
2019-06-07T09:07:18.096Z,916.42
2019-06-07T09:08:08.826Z,916.41
2019-06-07T09:08:49.326Z,916.44
2019-06-07T09:09:49.283Z,916.39
2019-06-07T09:10:49.246Z,916.40
2019-06-07T09:11:49.218Z,916.39
2019-06-07T09:12:49.182Z,916.40
2019-06-07T09:13:49.310Z,916.41
2019-06-07T09:15:06.836Z,916.44
2019-06-07T09:15:49.082Z,916.43
2019-06-07T09:16:49.046Z,916.48
2019-06-07T09:18:35.074Z,916.47
2019-06-07T09:18:48.942Z,916.45
2019-06-07T09:19:48.940Z,916.48
2019-06-07T09:20:48.878Z,916.44
2019-06-07T09:21:48.861Z,916.48
2019-06-07T09:22:48.819Z,916.50
2019-06-07T09:23:48.780Z,916.50
2019-06-07T09:24:48.808Z,916.51
2019-06-07T09:25:57.411Z,916.51
2019-06-07T09:26:48.646Z,916.54
2019-06-07T09:27:48.605Z,916.59
2019-06-07T09:28:48.590Z,916.63
2019-06-07T09:29:48.847Z,916.62
2019-06-07T09:30:48.578Z,916.60
2019-06-07T09:31:53.158Z,916.60
2019-06-07T09:32:48.485Z,916.60
2019-06-07T09:33:48.445Z,916.58
2019-06-07T09:34:48.435Z,916.61
2019-06-07T09:35:48.689Z,916.62
2019-06-07T09:36:48.277Z,916.67
2019-06-07T09:38:07.384Z,916.64
2019-06-07T09:38:48.204Z,916.71
2019-06-07T09:39:48.182Z,916.71
2019-06-07T09:40:48.129Z,916.74
2019-06-07T09:41:50.454Z,916.77
2019-06-07T09:42:48.069Z,916.77
2019-06-07T09:44:05.380Z,916.80
2019-06-07T09:44:48.041Z,916.87
2019-06-07T09:45:47.978Z,916.85
2019-06-07T09:46:47.903Z,916.89
2019-06-07T09:47:47.884Z,916.94
2019-06-07T09:49:12.378Z,916.93
2019-06-07T09:49:47.812Z,916.98
2019-06-07T09:50:47.770Z,916.98
2019-06-07T09:51:47.715Z,916.95
2019-06-07T09:52:58.494Z,916.93
2019-06-07T09:53:47.659Z,916.92
2019-06-07T09:55:09.424Z,916.95
2019-06-07T09:55:47.568Z,916.98
2019-06-07T09:56:47.556Z,916.99
2019-06-07T09:57:47.704Z,917.04
2019-06-07T09:58:51.973Z,917.11
2019-06-07T09:59:47.441Z,917.18
2019-06-07T10:00:47.382Z,917.22
2019-06-07T10:01:47.368Z,917.22
2019-06-07T10:02:47.347Z,917.27
2019-06-07T10:03:47.667Z,917.25
2019-06-07T10:04:47.253Z,917.25
2019-06-07T10:05:47.205Z,917.26
2019-06-07T10:06:47.304Z,917.29
2019-06-07T10:08:02.679Z,917.31
2019-06-07T10:10:47.022Z,917.44
2019-06-07T10:11:47.009Z,917.48
2019-06-07T10:12:46.979Z,917.50
2019-06-07T10:13:46.942Z,917.56
2019-06-07T10:14:46.914Z,917.48
2019-06-07T10:15:46.870Z,917.54
2019-06-07T10:16:48.013Z,917.57
2019-06-07T10:17:46.780Z,917.56
2019-06-07T10:18:46.770Z,917.54
2019-06-07T10:19:46.732Z,917.54
2019-06-07T10:20:46.674Z,917.59
2019-06-07T10:21:46.656Z,917.63
2019-06-07T10:22:46.621Z,917.68
2019-06-07T10:23:46.583Z,917.74
2019-06-07T10:24:46.570Z,917.78
2019-06-07T10:25:46.532Z,917.79
2019-06-07T10:26:46.509Z,917.87
2019-06-07T10:27:46.447Z,917.86
2019-06-07T10:28:46.417Z,917.96
2019-06-07T10:29:46.399Z,918.11
2019-06-07T10:30:46.544Z,918.15
2019-06-07T10:31:46.338Z,918.13
2019-06-07T10:32:46.307Z,918.28
2019-06-07T10:33:46.268Z,917.97
2019-06-07T10:34:46.241Z,918.07
2019-06-07T10:35:46.190Z,918.40
2019-06-07T10:36:46.161Z,918.70
2019-06-07T10:37:46.129Z,918.61
2019-06-07T10:38:46.113Z,918.24
2019-06-07T10:39:48.936Z,918.30
2019-06-07T10:40:46.050Z,918.42
2019-06-07T10:41:46.075Z,918.46
2019-06-07T10:42:45.991Z,918.63
2019-06-07T10:43:45.993Z,918.83
2019-06-07T10:44:45.917Z,918.26
2019-06-07T10:45:45.873Z,917.79
2019-06-07T10:46:45.849Z,917.76
2019-06-07T10:47:45.836Z,917.74
2019-06-07T10:48:45.814Z,917.81
2019-06-07T10:49:45.749Z,918.06
2019-06-07T10:50:45.761Z,919.53
2019-06-07T10:51:45.683Z,920.59
2019-06-07T10:52:45.822Z,920.31
2019-06-07T10:53:45.672Z,918.88
2019-06-07T10:54:45.589Z,917.97
2019-06-07T10:55:45.567Z,917.92
2019-06-07T10:57:45.497Z,918.54
2019-06-07T10:58:45.530Z,918.30
2019-06-07T10:59:45.442Z,918.01
2019-06-07T11:00:45.402Z,918.03
2019-06-07T11:01:45.378Z,917.96
2019-06-07T11:02:45.768Z,918.23
2019-06-07T11:03:45.368Z,918.22
2019-06-07T11:04:45.269Z,918.32
2019-06-07T11:05:45.286Z,918.14
2019-06-07T11:06:45.246Z,917.98
2019-06-07T11:07:45.206Z,918.08
2019-06-07T11:08:45.380Z,918.19
2019-06-07T11:09:45.137Z,919.62
2019-06-07T11:10:45.114Z,920.15
2019-06-07T11:11:45.098Z,920.13
2019-06-07T11:12:45.055Z,919.17
2019-06-07T11:13:45.045Z,918.03
2019-06-07T11:14:44.960Z,918.14
2019-06-07T11:15:45.039Z,918.38
2019-06-07T11:16:45.035Z,919.85
2019-06-07T11:17:44.915Z,920.17
2019-06-07T11:18:44.873Z,920.49
2019-06-07T11:19:44.828Z,920.63
2019-06-07T11:20:44.800Z,920.52
2019-06-07T11:21:44.795Z,920.28
2019-06-07T11:22:44.738Z,920.39
2019-06-07T11:23:44.720Z,920.20
2019-06-07T11:24:44.732Z,919.91
2019-06-07T11:25:44.634Z,919.89
2019-06-07T11:26:44.604Z,919.93
2019-06-07T11:27:44.576Z,919.82
2019-06-07T11:28:44.522Z,919.88
2019-06-07T11:29:44.779Z,919.50
2019-06-07T11:30:44.470Z,919.79
2019-06-07T11:31:47.254Z,919.76
2019-06-07T11:32:44.408Z,919.75
2019-06-07T11:33:44.402Z,919.56
2019-06-07T11:34:44.368Z,919.56
2019-06-07T11:35:44.696Z,919.57
2019-06-07T11:36:44.290Z,919.60
2019-06-07T11:37:44.279Z,919.62
2019-06-07T11:38:44.254Z,919.57
2019-06-07T11:39:44.204Z,919.61
2019-06-07T11:40:44.188Z,919.61
2019-06-07T11:41:44.288Z,919.57
2019-06-07T11:42:45.337Z,919.57
2019-06-07T11:43:44.113Z,919.58
2019-06-07T11:44:56.239Z,919.59
2019-06-07T11:45:44.031Z,919.50
2019-06-07T11:46:44.028Z,919.49
2019-06-07T11:47:43.988Z,919.47
2019-06-07T11:48:43.953Z,919.35
2019-06-07T11:49:43.940Z,919.38
2019-06-07T11:50:43.925Z,919.43
2019-06-07T11:51:43.877Z,919.42
2019-06-07T11:52:46.287Z,919.37
2019-06-07T11:53:43.847Z,919.34
2019-06-07T11:54:43.823Z,919.31
2019-06-07T11:55:43.768Z,919.30
2019-06-07T11:56:43.747Z,919.28
2019-06-07T11:57:43.712Z,919.22
2019-06-07T11:58:43.705Z,919.18
2019-06-07T11:59:43.667Z,919.16
2019-06-07T12:00:43.774Z,919.16
2019-06-07T12:01:43.617Z,919.16
2019-06-07T12:02:43.742Z,919.16
2019-06-07T12:03:43.684Z,919.14
2019-06-07T12:04:43.514Z,919.13
2019-06-07T12:05:43.502Z,919.16
2019-06-07T12:06:43.466Z,919.17
2019-06-07T12:07:43.445Z,919.22
2019-06-07T12:08:43.657Z,919.18
2019-06-07T12:09:56.052Z,919.19
2019-06-07T12:10:43.387Z,919.22
2019-06-07T12:11:43.361Z,919.30
2019-06-07T12:12:43.356Z,919.38
2019-06-07T12:13:43.269Z,919.33
2019-06-07T12:14:43.460Z,919.36
2019-06-07T12:15:43.236Z,919.42
2019-06-07T12:16:43.183Z,919.50
2019-06-07T12:17:43.188Z,919.65
2019-06-07T12:18:43.130Z,919.68
2019-06-07T12:19:43.144Z,919.83
2019-06-07T12:20:43.094Z,919.92
2019-06-07T12:21:43.093Z,920.08
2019-06-07T12:22:43.085Z,920.23
2019-06-07T12:23:43.007Z,920.37
2019-06-07T12:24:42.995Z,920.49
2019-06-07T12:25:42.942Z,920.76
2019-06-07T12:26:42.913Z,920.88
2019-06-07T12:27:42.910Z,921.17
2019-06-07T12:28:42.877Z,921.46
2019-06-07T12:29:42.887Z,921.93
2019-06-07T12:30:42.812Z,922.51
2019-06-07T12:31:42.797Z,922.83
2019-06-07T12:32:42.785Z,923.41
2019-06-07T12:33:42.757Z,924.04
2019-06-07T12:34:42.696Z,922.17
2019-06-07T12:35:42.694Z,922.00
2019-06-07T12:36:42.643Z,923.98
2019-06-07T12:37:44.857Z,923.15
2019-06-07T12:38:42.590Z,926.80
2019-06-07T12:39:42.567Z,924.74
2019-06-07T12:40:56.616Z,925.15